Hohe Bank — ZDJU8 — position and weather

sailwx.info

Track history (hours):
 
Tides and Currents Weather Stations Pressure Air Temp Water Temp Dewpoint Dewpoint Depression Visibility Wind Speed Wind Dir Waves Ship Positions

Hohe Bank

Last reported at 2018-Jun-20 22:09 UTC. Time now 2018-Jun-20 23:07 UTC.
Position N 53°47' E 006°05'.

Length 86 m; draft 4.7 m.

Type: Cargo ship. MMSI: 236568000.

Date/timePositionNaut miles runAvg speedWind from/ knotsBaromVisibWave heightAir tempDewpointWater temp
2018-Jun-20 22:09N 53°47' E 006°05'6310.6
2018-Jun-20 16:12N 54°02' E 007°49'2 9.6
2018-Jun-20 15:59N 54°02' E 007°53'5 9.4
2018-Jun-20 15:30N 54°02' E 008°00'5 9.2
2018-Jun-20 14:59N 54°01' E 008°08'4 9.1
2018-Jun-20 14:30N 54°01' E 008°16'4 8.8
2018-Jun-20 14:00N 53°60' E 008°23'4 8.1
2018-Jun-20 13:30N 53°59' E 008°29'4 8.4
2018-Jun-20 13:00N 53°58' E 008°36'510.5
2018-Jun-20 12:30N 53°54' E 008°42'612.1
2018-Jun-20 12:00N 53°50' E 008°51'612.7
2018-Jun-20 11:30N 53°52' E 009°01'510.0
2018-Jun-20 11:00N 53°54' E 009°09'0 0.0
2018-Jun-20 10:30N 53°54' E 009°09'2 4.5
2018-Jun-20 10:00N 53°55' E 009°12'4 8.2
2018-Jun-20 09:30N 53°58' E 009°16'4 8.3
2018-Jun-20 09:00N 54°02' E 009°18'8 7.6
2018-Jun-20 07:53N 54°10' E 009°25'2 6.1
2018-Jun-20 07:30N 54°11' E 009°29'3 6.9
2018-Jun-20 07:00N 54°12' E 009°34'4 7.6
2018-Jun-20 06:30N 54°16' E 009°37'4 8.1
2018-Jun-20 06:01N 54°18' E 009°42'4 8.3
2018-Jun-20 05:30N 54°21' E 009°47'14 5.9
2018-Jun-20 03:07N 54°23' E 010°11'1 9.4
2018-Jun-20 02:59N 54°24' E 010°12'510.4
2018-Jun-20 02:30N 54°29' E 010°15'510.3
2018-Jun-20 02:00N 54°31' E 010°23'510.5
2018-Jun-20 01:29N 54°34' E 010°31'6 9.9
2018-Jun-20 00:52N 54°35' E 010°42'4 9.7
2018-Jun-20 00:26N 54°35' E 010°49'4 9.1
2018-Jun-20 00:00N 54°36' E 010°56'4 8.5
2018-Jun-19 23:30N 54°36' E 011°03'4 8.1
2018-Jun-19 23:00N 54°37' E 011°10'4 8.7
2018-Jun-19 22:30N 54°35' E 011°17'4 8.2
2018-Jun-19 22:00N 54°33' E 011°23'4 8.6
2018-Jun-19 21:31N 54°31' E 011°30'4 8.9
2018-Jun-19 21:01N 54°29' E 011°37'5 9.0
2018-Jun-19 20:30N 54°27' E 011°44'5 8.9
2018-Jun-19 19:57N 54°24' E 011°50'4 9.1
2018-Jun-19 19:29N 54°20' E 011°54'5 9.4
2018-Jun-19 18:59N 54°17' E 011°59'510.0
2018-Jun-19 18:30N 54°13' E 012°04'3 6.6
2018-Jun-19 18:00N 54°10' E 012°06'0 0.1
2018-Jun-19 17:20N 54°10' E 012°06'0 0.0
2018-Jun-19 16:53N 54°10' E 012°06'0 0.0
2018-Jun-19 15:08N 54°10' E 012°06'0 0.0
2018-Jun-19 14:53N 54°10' E 012°06'0 0.0
2018-Jun-19 14:29N 54°10' E 012°06'0 0.0
2018-Jun-19 13:59N 54°10' E 012°06'0 0.0
2018-Jun-19 13:20N 54°10' E 012°06'0 0.0
2018-Jun-19 12:56N 54°10' E 012°06'0 0.0
2018-Jun-19 12:17N 54°10' E 012°06'0 0.0
2018-Jun-19 10:08N 54°10' E 012°06'0 0.0
2018-Jun-19 09:53N 54°10' E 012°06'0 0.0
2018-Jun-19 09:23N 54°10' E 012°06'0 0.0
2018-Jun-19 08:53N 54°10' E 012°06'0 0.0
2018-Jun-19 08:23N 54°10' E 012°06'0 0.0
2018-Jun-19 07:56N 54°10' E 012°06'0 0.0
2018-Jun-19 07:20N 54°10' E 012°06'0 0.0
2018-Jun-19 06:56N 54°10' E 012°06'0 0.0
2018-Jun-19 06:26N 54°10' E 012°06'0 0.0
2018-Jun-19 05:56N 54°10' E 012°06'0 0.0
2018-Jun-19 04:47N 54°10' E 012°06'0 0.0
2018-Jun-19 04:17N 54°10' E 012°06'0 0.0
2018-Jun-19 02:17N 54°10' E 012°06'0 0.0
2018-Jun-19 01:50N 54°10' E 012°06'0 0.0
2018-Jun-18 23:59N 54°10' E 012°06'0 0.0
2018-Jun-18 23:29N 54°10' E 012°06'0 0.0
2018-Jun-18 22:56N 54°10' E 012°06'0 0.0
2018-Jun-18 22:20N 54°10' E 012°06'0 0.0
2018-Jun-18 21:50N 54°10' E 012°06'0 0.0
2018-Jun-18 20:38N 54°10' E 012°06'0 0.0
2018-Jun-18 20:23N 54°10' E 012°06'0 0.0
2018-Jun-18 18:08N 54°10' E 012°06'0 0.0
2018-Jun-18 17:41N 54°10' E 012°06'0 0.0
2018-Jun-18 17:26N 54°10' E 012°06'0 0.0
2018-Jun-18 14:26N 54°10' E 012°06'0 0.0
2018-Jun-18 13:59N 54°10' E 012°06'0 0.0
2018-Jun-18 12:59N 54°10' E 012°06'0 0.0
2018-Jun-18 12:17N 54°10' E 012°06'0 0.0
2018-Jun-18 11:02N 54°10' E 012°06'0 0.0
2018-Jun-18 10:56N 54°10' E 012°06'0 0.0
2018-Jun-18 10:17N 54°10' E 012°06'0 0.0
2018-Jun-18 09:35N 54°10' E 012°06'0 0.0
2018-Jun-18 09:26N 54°10' E 012°06'0 0.0
2018-Jun-18 08:59N 54°10' E 012°06'0 0.0
2018-Jun-18 08:29N 54°10' E 012°06'0 0.0
2018-Jun-18 07:38N 54°10' E 012°06'0 0.0
2018-Jun-18 07:23N 54°10' E 012°06'0 0.0
2018-Jun-18 06:53N 54°10' E 012°06'0 0.0
2018-Jun-18 06:08N 54°10' E 012°06'0 0.0
2018-Jun-18 05:53N 54°10' E 012°06'0 0.0
2018-Jun-18 04:44N 54°10' E 012°06'0 0.0
2018-Jun-18 04:29N 54°10' E 012°06'0 0.0
2018-Jun-18 03:08N 54°10' E 012°06'0 0.0
2018-Jun-18 02:53N 54°10' E 012°06'0 0.0
2018-Jun-18 02:20N 54°10' E 012°06'0 0.0
2018-Jun-18 01:59N 54°10' E 012°06'0 0.0
2018-Jun-18 01:26N 54°10' E 012°06'0 0.0
2018-Jun-18 00:47N 54°10' E 012°06'0 0.0
2018-Jun-18 00:29N 54°10' E 012°06'0 0.0
2018-Jun-17 23:53N 54°10' E 012°06'0 0.0
2018-Jun-17 23:29N 54°10' E 012°06'0 0.0
2018-Jun-17 22:53N 54°10' E 012°06'0 0.0
2018-Jun-17 20:47N 54°10' E 012°06'0 0.0
2018-Jun-17 18:35N 54°10' E 012°06'0 0.0
2018-Jun-17 17:29N 54°10' E 012°06'0 0.0
2018-Jun-17 16:02N 54°10' E 012°06'0 0.0
2018-Jun-17 15:59N 54°10' E 012°06'0 0.0
2018-Jun-17 12:41N 54°10' E 012°06'0 0.0
2018-Jun-17 11:41N 54°10' E 012°06'0 0.0
2018-Jun-17 11:26N 54°10' E 012°06'0 0.0
2018-Jun-17 10:08N 54°10' E 012°06'0 0.0
2018-Jun-17 09:53N 54°10' E 012°06'0 0.0
2018-Jun-17 09:29N 54°10' E 012°06'0 0.0
2018-Jun-17 07:02N 54°10' E 012°06'0 0.0
2018-Jun-17 06:59N 54°10' E 012°06'0 0.0
2018-Jun-17 05:29N 54°10' E 012°06'0 0.0
2018-Jun-17 04:20N 54°10' E 012°06'0 0.0
2018-Jun-17 03:50N 54°10' E 012°06'0 0.0
2018-Jun-17 02:08N 54°10' E 012°06'0 0.0
2018-Jun-17 01:53N 54°10' E 012°06'0 0.0
2018-Jun-16 23:44N 54°10' E 012°06'0 0.0
2018-Jun-16 23:23N 54°10' E 012°06'0 0.0
2018-Jun-16 20:29N 54°10' E 012°06'0 0.0
2018-Jun-16 19:59N 54°10' E 012°06'0 0.0
2018-Jun-16 19:20N 54°10' E 012°06'0 0.0
2018-Jun-16 18:50N 54°10' E 012°06'0 0.0
2018-Jun-16 18:29N 54°10' E 012°06'0 0.0
2018-Jun-16 17:47N 54°10' E 012°06'0 0.0
2018-Jun-16 15:05N 54°10' E 012°06'0 0.0
2018-Jun-16 14:53N 54°10' E 012°06'0 0.0
2018-Jun-16 14:20N 54°10' E 012°06'0 0.0
2018-Jun-16 13:02N 54°10' E 012°06'0 0.0
2018-Jun-16 12:59N 54°10' E 012°06'0 0.0
2018-Jun-16 12:29N 54°10' E 012°06'0 0.0
2018-Jun-16 09:05N 54°10' E 012°06'0 0.0
2018-Jun-16 07:39N 54°10' E 012°06'0 0.5
2018-Jun-16 07:29N 54°10' E 012°06'1 1.7
2018-Jun-16 06:56N 54°09' E 012°07'0 0.0
2018-Jun-16 05:59N 54°09' E 012°07'0 0.0
2018-Jun-16 05:23N 54°09' E 012°07'0 0.0
2018-Jun-16 04:56N 54°09' E 012°07'0 0.0
2018-Jun-16 04:26N 54°09' E 012°07'0 0.0
2018-Jun-16 03:41N 54°09' E 012°07'0 0.0
2018-Jun-16 03:29N 54°09' E 012°07'0 0.0
2018-Jun-16 02:59N 54°09' E 012°07'0 0.0
2018-Jun-16 02:26N 54°09' E 012°07'0 0.0
2018-Jun-16 01:59N 54°09' E 012°07'0 0.0
2018-Jun-16 01:29N 54°09' E 012°07'0 0.0
2018-Jun-16 00:50N 54°09' E 012°07'0 0.0
2018-Jun-16 00:26N 54°09' E 012°07'0 0.0
2018-Jun-15 21:38N 54°09' E 012°07'0 0.0
2018-Jun-15 21:29N 54°09' E 012°07'0 0.0
2018-Jun-15 20:44N 54°09' E 012°07'0 0.0
2018-Jun-15 19:20N 54°09' E 012°07'0 0.0
2018-Jun-15 18:50N 54°09' E 012°07'0 0.0
2018-Jun-15 18:23N 54°09' E 012°07'0 0.0
2018-Jun-15 17:50N 54°09' E 012°07'0 0.0
2018-Jun-15 17:23N 54°09' E 012°07'0 0.0
2018-Jun-15 16:56N 54°09' E 012°07'0 0.0
2018-Jun-15 16:26N 54°09' E 012°07'0 0.0
2018-Jun-15 15:59N 54°09' E 012°07'0 0.0
2018-Jun-15 15:26N 54°09' E 012°07'0 0.0
2018-Jun-15 14:41N 54°09' E 012°07'0 0.0
2018-Jun-15 14:29N 54°09' E 012°07'0 0.0
2018-Jun-15 13:59N 54°09' E 012°07'0 0.0
2018-Jun-15 13:29N 54°09' E 012°07'0 0.0
2018-Jun-15 11:41N 54°09' E 012°07'0 0.0
2018-Jun-15 11:29N 54°09' E 012°07'0 0.0
2018-Jun-15 09:08N 54°09' E 012°07'0 0.0
2018-Jun-15 08:53N 54°09' E 012°07'0 0.0
2018-Jun-15 08:29N 54°09' E 012°07'0 0.0
2018-Jun-15 07:14N 54°09' E 012°07'0 0.0
2018-Jun-15 06:59N 54°09' E 012°07'0 0.0
2018-Jun-15 06:23N 54°09' E 012°07'0 0.0
2018-Jun-15 05:59N 54°09' E 012°07'0 0.0
2018-Jun-15 05:29N 54°09' E 012°07'0 0.0
2018-Jun-15 04:41N 54°09' E 012°07'0 0.0
2018-Jun-15 02:26N 54°09' E 012°07'0 0.0
2018-Jun-15 01:59N 54°09' E 012°07'0 0.0
2018-Jun-15 01:26N 54°09' E 012°07'0 0.0
2018-Jun-15 00:44N 54°09' E 012°07'0 0.0
2018-Jun-15 00:20N 54°09' E 012°07'0 0.0
2018-Jun-14 23:59N 54°09' E 012°07'0 0.0
2018-Jun-14 23:29N 54°09' E 012°07'0 0.0
2018-Jun-14 22:53N 54°09' E 012°07'0 0.0
2018-Jun-14 21:17N 54°09' E 012°07'0 0.0
2018-Jun-14 20:56N 54°09' E 012°07'0 0.0
2018-Jun-14 20:29N 54°09' E 012°07'0 0.0
2018-Jun-14 19:20N 54°09' E 012°07'0 0.0
2018-Jun-14 18:58N 54°09' E 012°07'0 0.8
2018-Jun-14 18:30N 54°10' E 012°07'3 6.2
2018-Jun-14 18:00N 54°12' E 012°04'4 8.4
2018-Jun-14 17:30N 54°16' E 012°02'510.8
2018-Jun-14 17:00N 54°21' E 011°59'5 6.9
2018-Jun-14 16:15N 54°26' E 012°04'310.7
2018-Jun-14 16:00N 54°27' E 012°08'510.5
2018-Jun-14 15:30N 54°32' E 012°11'611.3
2018-Jun-14 15:00N 54°37' E 012°14'3310.1
2018-Jun-14 11:42N 55°08' E 012°37'210.6
2018-Jun-14 11:30N 55°10' E 012°37'510.4
2018-Jun-14 11:00N 55°15' E 012°38'510.8
2018-Jun-14 10:30N 55°20' E 012°37'510.5
2018-Jun-14 10:00N 55°25' E 012°39'510.3
2018-Jun-14 09:30N 55°30' E 012°41'510.9
2018-Jun-14 09:00N 55°36' E 012°42'511.2
2018-Jun-14 08:30N 55°41' E 012°41'611.0
2018-Jun-14 08:00N 55°47' E 012°42'510.8
2018-Jun-14 07:30N 55°52' E 012°39'510.9
2018-Jun-14 07:00N 55°57' E 012°37'510.5
2018-Jun-14 06:31N 56°03' E 012°38'611.3
2018-Jun-14 06:00N 56°07' E 012°31'8110.3
2018-Jun-13 22:11N 57°20' E 011°28'211.6
2018-Jun-13 22:00N 57°22' E 011°27'611.5
2018-Jun-13 21:30N 57°27' E 011°24'611.2
2018-Jun-13 21:00N 57°31' E 011°16'510.8
2018-Jun-13 20:30N 57°35' E 011°09'510.9
2018-Jun-13 20:00N 57°39' E 011°02'11911.0
2018-Jun-13 09:10N 57°41' E 007°19'210.4
2018-Jun-13 09:00N 57°41' E 007°15'810.2
2018-Jun-13 08:13N 57°41' E 007°00'210.3
2018-Jun-13 08:00N 57°41' E 006°56'4710.6
2018-Jun-13 03:34N 57°48' E 005°29'210.6
2018-Jun-13 03:22N 57°48' E 005°25'410.4
2018-Jun-13 02:59N 57°48' E 005°18'610.6
2018-Jun-13 02:28N 57°49' E 005°07'510.6
2018-Jun-13 01:59N 57°50' E 004°58'  
Track history (hours):
 
Tides and Currents Weather Stations Pressure Air Temp Water Temp Dewpoint Dewpoint Depression Visibility Wind Speed Wind Dir Waves Ship Positions

Hohe Bank

Last reported at 2018-Jun-20 22:09 UTC. Time now 2018-Jun-20 23:07 UTC.
Position N 53°47' E 006°05'.

Length 86 m; draft 4.7 m.

Type: Cargo ship. MMSI: 236568000.

Date/timePositionNaut miles runAvg speedWind from/ knotsBaromVisibWave heightAir tempDewpointWater temp
2018-Jun-20 22:09N 53°47' E 006°05'6310.6
2018-Jun-20 16:12N 54°02' E 007°49'2 9.6
2018-Jun-20 15:59N 54°02' E 007°53'5 9.4
2018-Jun-20 15:30N 54°02' E 008°00'5 9.2
2018-Jun-20 14:59N 54°01' E 008°08'4 9.1
2018-Jun-20 14:30N 54°01' E 008°16'4 8.8
2018-Jun-20 14:00N 53°60' E 008°23'4 8.1
2018-Jun-20 13:30N 53°59' E 008°29'4 8.4
2018-Jun-20 13:00N 53°58' E 008°36'510.5
2018-Jun-20 12:30N 53°54' E 008°42'612.1
2018-Jun-20 12:00N 53°50' E 008°51'612.7
2018-Jun-20 11:30N 53°52' E 009°01'510.0
2018-Jun-20 11:00N 53°54' E 009°09'0 0.0
2018-Jun-20 10:30N 53°54' E 009°09'2 4.5
2018-Jun-20 10:00N 53°55' E 009°12'4 8.2
2018-Jun-20 09:30N 53°58' E 009°16'4 8.3
2018-Jun-20 09:00N 54°02' E 009°18'8 7.6
2018-Jun-20 07:53N 54°10' E 009°25'2 6.1
2018-Jun-20 07:30N 54°11' E 009°29'3 6.9
2018-Jun-20 07:00N 54°12' E 009°34'4 7.6
2018-Jun-20 06:30N 54°16' E 009°37'4 8.1
2018-Jun-20 06:01N 54°18' E 009°42'4 8.3
2018-Jun-20 05:30N 54°21' E 009°47'14 5.9
2018-Jun-20 03:07N 54°23' E 010°11'1 9.4
2018-Jun-20 02:59N 54°24' E 010°12'510.4
2018-Jun-20 02:30N 54°29' E 010°15'510.3
2018-Jun-20 02:00N 54°31' E 010°23'510.5
2018-Jun-20 01:29N 54°34' E 010°31'6 9.9
2018-Jun-20 00:52N 54°35' E 010°42'4 9.7
2018-Jun-20 00:26N 54°35' E 010°49'4 9.1
2018-Jun-20 00:00N 54°36' E 010°56'4 8.5
2018-Jun-19 23:30N 54°36' E 011°03'4 8.1
2018-Jun-19 23:00N 54°37' E 011°10'4 8.7
2018-Jun-19 22:30N 54°35' E 011°17'4 8.2
2018-Jun-19 22:00N 54°33' E 011°23'4 8.6
2018-Jun-19 21:31N 54°31' E 011°30'4 8.9
2018-Jun-19 21:01N 54°29' E 011°37'5 9.0
2018-Jun-19 20:30N 54°27' E 011°44'5 8.9
2018-Jun-19 19:57N 54°24' E 011°50'4 9.1
2018-Jun-19 19:29N 54°20' E 011°54'5 9.4
2018-Jun-19 18:59N 54°17' E 011°59'510.0
2018-Jun-19 18:30N 54°13' E 012°04'3 6.6
2018-Jun-19 18:00N 54°10' E 012°06'0 0.1
2018-Jun-19 17:20N 54°10' E 012°06'0 0.0
2018-Jun-19 16:53N 54°10' E 012°06'0 0.0
2018-Jun-19 15:08N 54°10' E 012°06'0 0.0
2018-Jun-19 14:53N 54°10' E 012°06'0 0.0
2018-Jun-19 14:29N 54°10' E 012°06'0 0.0
2018-Jun-19 13:59N 54°10' E 012°06'0 0.0
2018-Jun-19 13:20N 54°10' E 012°06'0 0.0
2018-Jun-19 12:56N 54°10' E 012°06'0 0.0
2018-Jun-19 12:17N 54°10' E 012°06'0 0.0
2018-Jun-19 10:08N 54°10' E 012°06'0 0.0
2018-Jun-19 09:53N 54°10' E 012°06'0 0.0
2018-Jun-19 09:23N 54°10' E 012°06'0 0.0
2018-Jun-19 08:53N 54°10' E 012°06'0 0.0
2018-Jun-19 08:23N 54°10' E 012°06'0 0.0
2018-Jun-19 07:56N 54°10' E 012°06'0 0.0
2018-Jun-19 07:20N 54°10' E 012°06'0 0.0
2018-Jun-19 06:56N 54°10' E 012°06'0 0.0
2018-Jun-19 06:26N 54°10' E 012°06'0 0.0
2018-Jun-19 05:56N 54°10' E 012°06'0 0.0
2018-Jun-19 04:47N 54°10' E 012°06'0 0.0
2018-Jun-19 04:17N 54°10' E 012°06'0 0.0
2018-Jun-19 02:17N 54°10' E 012°06'0 0.0
2018-Jun-19 01:50N 54°10' E 012°06'0 0.0
2018-Jun-18 23:59N 54°10' E 012°06'0 0.0
2018-Jun-18 23:29N 54°10' E 012°06'0 0.0
2018-Jun-18 22:56N 54°10' E 012°06'0 0.0
2018-Jun-18 22:20N 54°10' E 012°06'0 0.0
2018-Jun-18 21:50N 54°10' E 012°06'0 0.0
2018-Jun-18 20:38N 54°10' E 012°06'0 0.0
2018-Jun-18 20:23N 54°10' E 012°06'0 0.0
2018-Jun-18 18:08N 54°10' E 012°06'0 0.0
2018-Jun-18 17:41N 54°10' E 012°06'0 0.0
2018-Jun-18 17:26N 54°10' E 012°06'0 0.0
2018-Jun-18 14:26N 54°10' E 012°06'0 0.0
2018-Jun-18 13:59N 54°10' E 012°06'0 0.0
2018-Jun-18 12:59N 54°10' E 012°06'0 0.0
2018-Jun-18 12:17N 54°10' E 012°06'0 0.0
2018-Jun-18 11:02N 54°10' E 012°06'0 0.0
2018-Jun-18 10:56N 54°10' E 012°06'0 0.0
2018-Jun-18 10:17N 54°10' E 012°06'0 0.0
2018-Jun-18 09:35N 54°10' E 012°06'0 0.0
2018-Jun-18 09:26N 54°10' E 012°06'0 0.0
2018-Jun-18 08:59N 54°10' E 012°06'0 0.0
2018-Jun-18 08:29N 54°10' E 012°06'0 0.0
2018-Jun-18 07:38N 54°10' E 012°06'0 0.0
2018-Jun-18 07:23N 54°10' E 012°06'0 0.0
2018-Jun-18 06:53N 54°10' E 012°06'0 0.0
2018-Jun-18 06:08N 54°10' E 012°06'0 0.0
2018-Jun-18 05:53N 54°10' E 012°06'0 0.0
2018-Jun-18 04:44N 54°10' E 012°06'0 0.0
2018-Jun-18 04:29N 54°10' E 012°06'0 0.0
2018-Jun-18 03:08N 54°10' E 012°06'0 0.0
2018-Jun-18 02:53N 54°10' E 012°06'0 0.0
2018-Jun-18 02:20N 54°10' E 012°06'0 0.0
2018-Jun-18 01:59N 54°10' E 012°06'0 0.0
2018-Jun-18 01:26N 54°10' E 012°06'0 0.0
2018-Jun-18 00:47N 54°10' E 012°06'0 0.0
2018-Jun-18 00:29N 54°10' E 012°06'0 0.0
2018-Jun-17 23:53N 54°10' E 012°06'0 0.0
2018-Jun-17 23:29N 54°10' E 012°06'0 0.0
2018-Jun-17 22:53N 54°10' E 012°06'0 0.0
2018-Jun-17 20:47N 54°10' E 012°06'0 0.0
2018-Jun-17 18:35N 54°10' E 012°06'0 0.0
2018-Jun-17 17:29N 54°10' E 012°06'0 0.0
2018-Jun-17 16:02N 54°10' E 012°06'0 0.0
2018-Jun-17 15:59N 54°10' E 012°06'0 0.0
2018-Jun-17 12:41N 54°10' E 012°06'0 0.0
2018-Jun-17 11:41N 54°10' E 012°06'0 0.0
2018-Jun-17 11:26N 54°10' E 012°06'0 0.0
2018-Jun-17 10:08N 54°10' E 012°06'0 0.0
2018-Jun-17 09:53N 54°10' E 012°06'0 0.0
2018-Jun-17 09:29N 54°10' E 012°06'0 0.0
2018-Jun-17 07:02N 54°10' E 012°06'0 0.0
2018-Jun-17 06:59N 54°10' E 012°06'0 0.0
2018-Jun-17 05:29N 54°10' E 012°06'0 0.0
2018-Jun-17 04:20N 54°10' E 012°06'0 0.0
2018-Jun-17 03:50N 54°10' E 012°06'0 0.0
2018-Jun-17 02:08N 54°10' E 012°06'0 0.0
2018-Jun-17 01:53N 54°10' E 012°06'0 0.0
2018-Jun-16 23:44N 54°10' E 012°06'0 0.0
2018-Jun-16 23:23N 54°10' E 012°06'0 0.0
2018-Jun-16 20:29N 54°10' E 012°06'0 0.0
2018-Jun-16 19:59N 54°10' E 012°06'0 0.0
2018-Jun-16 19:20N 54°10' E 012°06'0 0.0
2018-Jun-16 18:50N 54°10' E 012°06'0 0.0
2018-Jun-16 18:29N 54°10' E 012°06'0 0.0
2018-Jun-16 17:47N 54°10' E 012°06'0 0.0
2018-Jun-16 15:05N 54°10' E 012°06'0 0.0
2018-Jun-16 14:53N 54°10' E 012°06'0 0.0
2018-Jun-16 14:20N 54°10' E 012°06'0 0.0
2018-Jun-16 13:02N 54°10' E 012°06'0 0.0
2018-Jun-16 12:59N 54°10' E 012°06'0 0.0
2018-Jun-16 12:29N 54°10' E 012°06'0 0.0
2018-Jun-16 09:05N 54°10' E 012°06'0 0.0
2018-Jun-16 07:39N 54°10' E 012°06'0 0.5
2018-Jun-16 07:29N 54°10' E 012°06'1 1.7
2018-Jun-16 06:56N 54°09' E 012°07'0 0.0
2018-Jun-16 05:59N 54°09' E 012°07'0 0.0
2018-Jun-16 05:23N 54°09' E 012°07'0 0.0
2018-Jun-16 04:56N 54°09' E 012°07'0 0.0
2018-Jun-16 04:26N 54°09' E 012°07'0 0.0
2018-Jun-16 03:41N 54°09' E 012°07'0 0.0
2018-Jun-16 03:29N 54°09' E 012°07'0 0.0
2018-Jun-16 02:59N 54°09' E 012°07'0 0.0
2018-Jun-16 02:26N 54°09' E 012°07'0 0.0
2018-Jun-16 01:59N 54°09' E 012°07'0 0.0
2018-Jun-16 01:29N 54°09' E 012°07'0 0.0
2018-Jun-16 00:50N 54°09' E 012°07'0 0.0
2018-Jun-16 00:26N 54°09' E 012°07'0 0.0
2018-Jun-15 21:38N 54°09' E 012°07'0 0.0
2018-Jun-15 21:29N 54°09' E 012°07'0 0.0
2018-Jun-15 20:44N 54°09' E 012°07'0 0.0
2018-Jun-15 19:20N 54°09' E 012°07'0 0.0
2018-Jun-15 18:50N 54°09' E 012°07'0 0.0
2018-Jun-15 18:23N 54°09' E 012°07'0 0.0
2018-Jun-15 17:50N 54°09' E 012°07'0 0.0
2018-Jun-15 17:23N 54°09' E 012°07'0 0.0
2018-Jun-15 16:56N 54°09' E 012°07'0 0.0
2018-Jun-15 16:26N 54°09' E 012°07'0 0.0
2018-Jun-15 15:59N 54°09' E 012°07'0 0.0
2018-Jun-15 15:26N 54°09' E 012°07'0 0.0
2018-Jun-15 14:41N 54°09' E 012°07'0 0.0
2018-Jun-15 14:29N 54°09' E 012°07'0 0.0
2018-Jun-15 13:59N 54°09' E 012°07'0 0.0
2018-Jun-15 13:29N 54°09' E 012°07'0 0.0
2018-Jun-15 11:41N 54°09' E 012°07'0 0.0
2018-Jun-15 11:29N 54°09' E 012°07'0 0.0
2018-Jun-15 09:08N 54°09' E 012°07'0 0.0
2018-Jun-15 08:53N 54°09' E 012°07'0 0.0
2018-Jun-15 08:29N 54°09' E 012°07'0 0.0
2018-Jun-15 07:14N 54°09' E 012°07'0 0.0
2018-Jun-15 06:59N 54°09' E 012°07'0 0.0
2018-Jun-15 06:23N 54°09' E 012°07'0 0.0
2018-Jun-15 05:59N 54°09' E 012°07'0 0.0
2018-Jun-15 05:29N 54°09' E 012°07'0 0.0
2018-Jun-15 04:41N 54°09' E 012°07'0 0.0
2018-Jun-15 02:26N 54°09' E 012°07'0 0.0
2018-Jun-15 01:59N 54°09' E 012°07'0 0.0
2018-Jun-15 01:26N 54°09' E 012°07'0 0.0
2018-Jun-15 00:44N 54°09' E 012°07'0 0.0
2018-Jun-15 00:20N 54°09' E 012°07'0 0.0
2018-Jun-14 23:59N 54°09' E 012°07'0 0.0
2018-Jun-14 23:29N 54°09' E 012°07'0 0.0
2018-Jun-14 22:53N 54°09' E 012°07'0 0.0
2018-Jun-14 21:17N 54°09' E 012°07'0 0.0
2018-Jun-14 20:56N 54°09' E 012°07'0 0.0
2018-Jun-14 20:29N 54°09' E 012°07'0 0.0
2018-Jun-14 19:20N 54°09' E 012°07'0 0.0
2018-Jun-14 18:58N 54°09' E 012°07'0 0.8
2018-Jun-14 18:30N 54°10' E 012°07'3 6.2
2018-Jun-14 18:00N 54°12' E 012°04'4 8.4
2018-Jun-14 17:30N 54°16' E 012°02'510.8
2018-Jun-14 17:00N 54°21' E 011°59'5 6.9
2018-Jun-14 16:15N 54°26' E 012°04'310.7
2018-Jun-14 16:00N 54°27' E 012°08'510.5
2018-Jun-14 15:30N 54°32' E 012°11'611.3
2018-Jun-14 15:00N 54°37' E 012°14'3310.1
2018-Jun-14 11:42N 55°08' E 012°37'210.6
2018-Jun-14 11:30N 55°10' E 012°37'510.4
2018-Jun-14 11:00N 55°15' E 012°38'510.8
2018-Jun-14 10:30N 55°20' E 012°37'510.5
2018-Jun-14 10:00N 55°25' E 012°39'510.3
2018-Jun-14 09:30N 55°30' E 012°41'510.9
2018-Jun-14 09:00N 55°36' E 012°42'511.2
2018-Jun-14 08:30N 55°41' E 012°41'611.0
2018-Jun-14 08:00N 55°47' E 012°42'510.8
2018-Jun-14 07:30N 55°52' E 012°39'510.9
2018-Jun-14 07:00N 55°57' E 012°37'510.5
2018-Jun-14 06:31N 56°03' E 012°38'611.3
2018-Jun-14 06:00N 56°07' E 012°31'8110.3
2018-Jun-13 22:11N 57°20' E 011°28'211.6
2018-Jun-13 22:00N 57°22' E 011°27'611.5
2018-Jun-13 21:30N 57°27' E 011°24'611.2
2018-Jun-13 21:00N 57°31' E 011°16'510.8
2018-Jun-13 20:30N 57°35' E 011°09'510.9
2018-Jun-13 20:00N 57°39' E 011°02'11911.0
2018-Jun-13 09:10N 57°41' E 007°19'210.4
2018-Jun-13 09:00N 57°41' E 007°15'810.2
2018-Jun-13 08:13N 57°41' E 007°00'210.3
2018-Jun-13 08:00N 57°41' E 006°56'4710.6
2018-Jun-13 03:34N 57°48' E 005°29'210.6
2018-Jun-13 03:22N 57°48' E 005°25'410.4
2018-Jun-13 02:59N 57°48' E 005°18'610.6
2018-Jun-13 02:28N 57°49' E 005°07'510.6
2018-Jun-13 01:59N 57°50' E 004°58'  

Dump ship's entire track history